createdAt,value
2022-11-27T00:03:09.586Z,4.40
2022-11-27T00:08:12.913Z,4.40
2022-11-27T00:13:16.732Z,4.50
2022-11-27T00:18:27.739Z,5.50
2022-11-27T00:23:31.882Z,4.50
2022-11-27T00:28:35.898Z,4.10
2022-11-27T00:33:56.127Z,3.50
2022-11-27T00:39:06.330Z,3.40
2022-11-27T00:44:09.584Z,4.00
2022-11-27T00:49:19.047Z,4.50
2022-11-27T00:54:42.715Z,4.40
2022-11-27T00:59:52.706Z,5.30
2022-11-27T01:05:11.001Z,3.50
2022-11-27T01:10:16.679Z,3.30
2022-11-27T01:15:20.936Z,4.90
2022-11-27T01:20:39.300Z,3.30
2022-11-27T01:25:47.359Z,3.40
2022-11-27T01:30:51.245Z,4.30
2022-11-27T01:36:07.070Z,3.80
2022-11-27T01:41:29.413Z,3.60
2022-11-27T01:46:37.381Z,3.60
2022-11-27T01:51:43.129Z,4.00
2022-11-27T01:56:51.171Z,3.30
2022-11-27T02:01:54.764Z,3.30
2022-11-27T02:07:02.944Z,3.20
2022-11-27T02:12:12.180Z,2.70
2022-11-27T02:17:18.138Z,2.90
2022-11-27T02:22:31.029Z,4.10
2022-11-27T02:27:57.998Z,3.20
2022-11-27T02:33:07.529Z,3.10
2022-11-27T02:38:13.951Z,3.00
2022-11-27T02:43:18.305Z,5.20
2022-11-27T02:48:29.483Z,3.60
2022-11-27T02:53:46.977Z,3.40
2022-11-27T02:59:01.299Z,3.40
2022-11-27T03:04:10.453Z,3.30
2022-11-27T03:09:15.875Z,4.20
2022-11-27T03:14:24.663Z,3.40
2022-11-27T03:19:39.693Z,3.30
2022-11-27T03:30:42.361Z,3.20
2022-11-27T03:35:50.019Z,3.30
2022-11-27T03:40:56.539Z,3.80
2022-11-27T03:46:06.835Z,4.00
2022-11-27T03:51:15.307Z,3.90
2022-11-27T03:56:33.834Z,3.20
2022-11-27T04:01:37.965Z,3.10
2022-11-27T04:06:43.147Z,2.00
2022-11-27T04:11:47.148Z,2.70
2022-11-27T04:16:52.175Z,4.50
2022-11-27T04:22:03.055Z,4.50
2022-11-27T04:27:15.901Z,3.10
2022-11-27T04:32:22.141Z,4.60
2022-11-27T04:37:30.254Z,3.00
2022-11-27T04:42:37.048Z,2.80
2022-11-27T04:47:40.663Z,3.20
2022-11-27T04:52:47.969Z,3.30
2022-11-27T04:57:52.656Z,3.40
2022-11-27T05:02:57.511Z,2.40
2022-11-27T05:08:16.856Z,2.80
2022-11-27T05:13:20.738Z,3.40
2022-11-27T05:18:30.431Z,3.20
2022-11-27T05:23:36.198Z,3.40
2022-11-27T05:28:53.533Z,3.40
2022-11-27T05:34:00.712Z,3.50
2022-11-27T05:39:16.537Z,3.30
2022-11-27T05:44:25.026Z,3.00
2022-11-27T05:49:51.988Z,4.00
2022-11-27T05:55:04.777Z,4.20
2022-11-27T06:00:10.774Z,3.20
2022-11-27T06:05:20.591Z,3.60
2022-11-27T06:10:25.907Z,3.30
2022-11-27T06:15:34.998Z,4.20
2022-11-27T06:20:44.160Z,3.20
2022-11-27T06:25:51.871Z,3.30
2022-11-27T06:31:20.769Z,3.30
2022-11-27T06:36:31.552Z,3.50
2022-11-27T06:41:39.906Z,3.70
2022-11-27T06:46:45.431Z,3.70
2022-11-27T06:51:50.524Z,3.80
2022-11-27T06:56:58.499Z,4.00
2022-11-27T07:02:12.505Z,3.50
2022-11-27T07:07:18.697Z,3.20
2022-11-27T07:12:26.535Z,3.80
2022-11-27T07:17:30.507Z,3.80
2022-11-27T07:22:34.810Z,3.20
2022-11-27T07:27:42.645Z,3.20
2022-11-27T07:32:49.240Z,3.10
2022-11-27T07:37:54.756Z,3.30
2022-11-27T07:43:07.626Z,3.20
2022-11-27T07:48:15.919Z,3.70
2022-11-27T07:53:24.199Z,3.50
2022-11-27T07:58:30.440Z,3.40
2022-11-27T08:03:37.434Z,4.10
2022-11-27T08:08:52.202Z,4.10
2022-11-27T08:14:00.335Z,4.30
2022-11-27T08:19:26.737Z,4.30
2022-11-27T08:24:34.700Z,4.40
2022-11-27T08:29:43.559Z,4.10
2022-11-27T08:34:52.486Z,5.10
2022-11-27T08:39:56.502Z,5.60
2022-11-27T08:45:04.530Z,5.60
2022-11-27T08:50:10.163Z,4.80
2022-11-27T08:55:17.715Z,4.30
2022-11-27T09:00:28.358Z,4.60
2022-11-27T09:05:34.769Z,4.70
2022-11-27T09:10:40.979Z,4.90
2022-11-27T09:15:48.553Z,5.60
2022-11-27T09:20:58.522Z,5.70
2022-11-27T09:26:02.205Z,6.00
2022-11-27T09:31:08.109Z,5.40
2022-11-27T09:36:14.792Z,5.90
2022-11-27T09:41:45.447Z,6.70
2022-11-27T09:46:50.772Z,6.90
2022-11-27T09:51:56.032Z,6.40
2022-11-27T09:56:59.762Z,6.10
2022-11-27T10:02:05.145Z,6.40
2022-11-27T10:07:19.118Z,7.10
2022-11-27T10:12:24.168Z,7.40
2022-11-27T10:17:39.362Z,7.40
2022-11-27T10:22:46.931Z,7.40
2022-11-27T10:28:03.148Z,7.20
2022-11-27T10:33:22.456Z,6.30
2022-11-27T10:38:27.227Z,6.30
2022-11-27T10:43:30.947Z,6.40
2022-11-27T10:48:37.026Z,7.30
2022-11-27T10:53:49.675Z,6.90
2022-11-27T10:58:58.323Z,6.70
2022-11-27T11:04:36.261Z,6.90
2022-11-27T11:09:36.731Z,7.80
2022-11-27T11:14:40.174Z,7.80
2022-11-27T11:19:46.338Z,7.50
2022-11-27T11:58:46.383Z,7.60
2022-11-27T12:03:58.787Z,7.30
2022-11-27T12:09:10.688Z,7.90
2022-11-27T12:14:22.542Z,8.30
2022-11-27T12:19:54.099Z,7.70
2022-11-27T12:25:03.402Z,7.90
2022-11-27T12:30:12.599Z,8.00
2022-11-27T12:35:23.657Z,7.40
2022-11-27T12:40:44.391Z,7.30
2022-11-27T12:45:50.369Z,7.00
2022-11-27T12:50:56.547Z,7.20
2022-11-27T12:56:08.001Z,7.50
2022-11-27T13:01:15.910Z,7.30
2022-11-27T13:06:21.199Z,7.40
2022-11-27T13:11:28.595Z,7.60
2022-11-27T13:16:36.673Z,8.10
2022-11-27T13:21:40.542Z,7.40
2022-11-27T13:26:46.335Z,7.30
2022-11-27T13:31:54.144Z,7.40
2022-11-27T13:36:59.982Z,7.70
2022-11-27T13:42:08.668Z,7.90
2022-11-27T13:47:15.992Z,7.90
2022-11-27T13:52:21.265Z,7.70
2022-11-27T13:57:25.599Z,7.40
2022-11-27T14:02:43.295Z,7.30
2022-11-27T14:07:49.592Z,7.20
2022-11-27T14:12:55.159Z,7.20
2022-11-27T14:18:09.458Z,7.60
2022-11-27T14:23:13.651Z,7.40
2022-11-27T14:28:18.025Z,7.40
2022-11-27T14:33:33.278Z,8.30
2022-11-27T14:38:44.678Z,8.40
2022-11-27T14:43:53.652Z,8.20
2022-11-27T14:49:02.818Z,7.70
2022-11-27T14:54:07.266Z,7.30
2022-11-27T14:59:12.802Z,7.30
2022-11-27T15:04:30.934Z,7.40
2022-11-27T15:09:36.177Z,7.60
2022-11-27T15:14:41.382Z,8.30
2022-11-27T15:19:47.795Z,8.00
2022-11-27T15:24:59.753Z,7.70
2022-11-27T15:30:11.399Z,7.60
2022-11-27T15:35:17.137Z,7.90
2022-11-27T15:40:32.128Z,7.90
2022-11-27T15:45:36.034Z,8.00
2022-11-27T15:50:40.789Z,7.20
2022-11-27T15:55:44.020Z,6.90
2022-11-27T16:00:47.532Z,6.80
2022-11-27T16:05:52.648Z,6.70
2022-11-27T16:10:55.917Z,6.80
2022-11-27T16:16:02.819Z,6.50
2022-11-27T16:21:08.928Z,6.80
2022-11-27T16:26:12.988Z,6.70
2022-11-27T16:31:16.647Z,7.20
2022-11-27T16:36:22.352Z,7.30
2022-11-27T16:41:26.921Z,7.10
2022-11-27T16:46:32.838Z,7.30
2022-11-27T16:51:39.383Z,7.00
2022-11-27T16:56:45.179Z,7.00
2022-11-27T17:01:49.982Z,7.00
2022-11-27T17:07:05.928Z,7.00
2022-11-27T17:12:09.951Z,6.90
2022-11-27T17:17:14.115Z,7.00
2022-11-27T17:22:19.305Z,7.00
2022-11-27T17:27:24.941Z,6.70
2022-11-27T17:32:28.431Z,6.60
2022-11-27T17:37:34.631Z,6.70
2022-11-27T17:42:39.816Z,6.80
2022-11-27T17:47:43.433Z,6.90
2022-11-27T17:52:51.397Z,6.90
2022-11-27T17:57:55.032Z,6.70
2022-11-27T18:03:03.469Z,6.80
2022-11-27T18:08:15.293Z,6.60
2022-11-27T18:13:19.271Z,6.40
2022-11-27T18:18:24.216Z,6.40
2022-11-27T18:23:29.631Z,6.90
2022-11-27T18:28:33.175Z,6.50
2022-11-27T18:33:37.247Z,6.20
2022-11-27T18:38:42.627Z,6.40
2022-11-27T18:43:49.379Z,6.20
2022-11-27T18:48:52.966Z,6.50
2022-11-27T18:53:58.866Z,6.40
2022-11-27T18:59:04.247Z,6.40
2022-11-27T19:04:09.379Z,6.10
2022-11-27T19:09:15.153Z,5.90
2022-11-27T19:14:19.828Z,5.90
2022-11-27T19:24:53.232Z,6.10
2022-11-27T19:29:57.012Z,6.30
2022-11-27T19:35:05.659Z,6.10
2022-11-27T19:40:14.146Z,6.10
2022-11-27T19:45:25.138Z,6.10
2022-11-27T19:50:28.659Z,6.00
2022-11-27T19:55:36.081Z,6.30
2022-11-27T20:00:39.944Z,6.00
2022-11-27T20:05:45.093Z,6.10
2022-11-27T20:10:55.378Z,5.90
2022-11-27T20:15:59.351Z,6.10
2022-11-27T20:21:08.728Z,6.00
2022-11-27T20:26:15.391Z,6.10
2022-11-27T20:31:22.372Z,5.70
2022-11-27T20:36:25.961Z,5.80
2022-11-27T20:41:31.280Z,6.30
2022-11-27T20:46:35.474Z,6.50
2022-11-27T20:51:39.632Z,6.30
2022-11-27T20:56:46.780Z,5.90
2022-11-27T21:01:51.123Z,6.00
2022-11-27T21:06:59.552Z,5.90
2022-11-27T21:12:06.628Z,6.10
2022-11-27T21:17:10.371Z,6.40
2022-11-27T21:22:14.151Z,6.30
2022-11-27T21:27:19.635Z,6.20
2022-11-27T21:32:23.770Z,5.90
2022-11-27T21:37:31.083Z,5.50
2022-11-27T21:42:38.184Z,6.00
2022-11-27T21:47:44.619Z,5.80
2022-11-27T21:52:48.362Z,6.00
2022-11-27T21:57:53.429Z,5.40
2022-11-27T22:02:58.548Z,5.90
2022-11-27T22:08:02.641Z,5.80
2022-11-27T22:13:10.538Z,5.70
2022-11-27T22:18:14.128Z,5.70
2022-11-27T22:23:18.068Z,5.70
2022-11-27T22:28:26.966Z,5.70
2022-11-27T22:33:35.332Z,6.00
2022-11-27T22:38:40.491Z,5.70
2022-11-27T22:43:45.911Z,5.40
2022-11-27T22:48:54.098Z,5.80
2022-11-27T22:53:59.595Z,5.90
2022-11-27T22:59:31.099Z,5.60
2022-11-27T23:04:29.643Z,5.60
2022-11-27T23:09:35.072Z,5.50
2022-11-27T23:14:40.786Z,6.10
2022-11-27T23:19:44.720Z,6.30
2022-11-27T23:24:47.913Z,6.30
2022-11-27T23:29:52.886Z,5.90
2022-11-27T23:34:57.114Z,5.60
2022-11-27T23:40:01.078Z,5.90
2022-11-27T23:45:07.686Z,5.70
2022-11-27T23:50:12.582Z,6.20
2022-11-27T23:55:18.830Z,6.30
